Time;durP1;ratioP1;P1;durP2;ratioP2;P2;SDS_P1;SDS_P2;PMS_P1;PMS_P2;Temp;Humidity;BMP_temperature;BMP_pressure;BME280_temperature;BME280_humidity;BME280_pressure;Samples;Min_cycle;Max_cycle;Signal;HPM_P1;HPM_P2
2022/06/14 00:01:30;;;;;;;2.13;1.80;;;;;;;19.22;72.45;100458.09;6211765;23;20350;-72
2022/06/14 00:03:59;;;;;;;3.28;1.55;;;;;;;19.09;72.22;100451.63;6212552;23;20024;-71
2022/06/14 00:06:27;;;;;;;1.70;1.52;;;;;;;19.09;73.01;100471.50;6185407;23;20012;-71
2022/06/14 00:08:53;;;;;;;1.75;1.55;;;;;;;18.89;73.26;100442.31;6211703;23;20087;-71
2022/06/14 00:11:27;;;;;;;1.60;1.38;;;;;;;19.01;73.39;100485.19;6211726;23;20060;-71
2022/06/14 00:13:55;;;;;;;2.50;1.38;;;;;;;19.02;72.95;100478.69;6211947;23;20414;-71
2022/06/14 00:16:22;;;;;;;2.30;1.50;;;;;;;18.97;72.64;100475.72;6211952;23;20438;-72
2022/06/14 00:18:49;;;;;;;2.83;1.60;;;;;;;18.99;71.85;100470.91;6184666;23;20021;-71
2022/06/14 00:21:15;;;;;;;1.45;1.30;;;;;;;19.04;70.80;100465.78;6185225;23;20038;-71
2022/06/14 00:23:41;;;;;;;1.52;1.42;;;;;;;19.01;70.89;100482.47;6184851;23;20008;-71
2022/06/14 00:26:09;;;;;;;2.05;1.75;;;;;;;18.97;70.86;100481.16;6211573;23;20333;-71
2022/06/14 00:28:34;;;;;;;2.40;1.70;;;;;;;18.90;71.47;100493.78;6211645;23;20000;-71
2022/06/14 00:31:08;;;;;;;1.80;1.60;;;;;;;18.89;71.15;100492.06;6211894;23;20031;-71
2022/06/14 00:33:34;;;;;;;4.97;1.60;;;;;;;18.80;71.79;100492.34;6211546;23;20283;-71
2022/06/14 00:36:03;;;;;;;2.95;1.50;;;;;;;18.76;71.90;100499.19;6211623;23;20064;-71
2022/06/14 00:38:29;;;;;;;2.58;1.75;;;;;;;18.74;71.30;100496.66;6211446;23;20013;-71
2022/06/14 00:40:58;;;;;;;2.65;1.77;;;;;;;18.74;71.30;100512.09;6211416;23;20005;-71
2022/06/14 00:43:25;;;;;;;3.58;1.92;;;;;;;18.63;71.23;100505.22;6211327;23;20000;-71
2022/06/14 00:45:51;;;;;;;5.03;1.83;;;;;;;18.71;71.42;100524.19;6211075;23;20044;-71
2022/06/14 00:48:19;;;;;;;1.83;1.45;;;;;;;18.75;70.45;100522.78;6211365;23;20004;-71
2022/06/14 00:51:06;;;;;;;2.38;1.90;;;;;;;18.72;70.62;100511.41;6211242;23;20016;-71
2022/06/14 00:53:46;;;;;;;2.50;2.03;;;;;;;18.66;69.94;100517.56;6184628;23;20012;-71
2022/06/14 00:56:26;;;;;;;3.38;1.90;;;;;;;18.60;70.23;100526.47;6211314;23;20001;-71
2022/06/14 00:59:00;;;;;;;4.78;1.83;;;;;;;18.48;70.74;100519.75;6211610;23;20102;-71
2022/06/14 01:01:29;;;;;;;3.20;1.83;;;;;;;18.53;70.70;100530.91;6211112;23;20315;-71
2022/06/14 01:03:58;;;;;;;2.90;1.73;;;;;;;18.51;70.51;100533.00;6184493;23;20372;-71
2022/06/14 01:06:40;;;;;;;5.97;2.33;;;;;;;18.40;71.72;100553.25;6211287;23;20012;-71
2022/06/14 01:09:20;;;;;;;4.53;2.00;;;;;;;18.34;72.37;100534.09;6211230;23;20010;-71
2022/06/14 01:11:51;;;;;;;5.63;2.08;;;;;;;18.17;72.60;100524.31;6184435;23;20004;-71
2022/06/14 01:14:32;;;;;;;2.75;1.75;;;;;;;18.17;73.18;100532.47;6211188;23;20012;-71
2022/06/14 01:16:57;;;;;;;5.00;2.45;;;;;;;18.15;73.58;100545.41;6211010;23;20001;-72
2022/06/14 01:19:25;;;;;;;4.97;2.55;;;;;;;18.14;73.58;100547.25;6211136;23;20034;-71
2022/06/14 01:21:51;;;;;;;4.88;2.80;;;;;;;18.12;73.29;100535.72;6211330;23;20563;-71
2022/06/14 01:24:17;;;;;;;3.88;2.13;;;;;;;18.08;73.23;100533.56;6209209;23;20016;-71
2022/06/14 01:26:42;;;;;;;3.70;2.17;;;;;;;17.94;73.57;100529.72;6210950;23;20001;-71
2022/06/14 01:29:08;;;;;;;4.32;2.40;;;;;;;17.91;74.14;100543.63;6211083;23;20001;-71
2022/06/14 01:31:33;;;;;;;4.95;2.28;;;;;;;17.84;74.71;100546.19;6211269;23;20035;-72
2022/06/14 01:34:06;;;;;;;3.47;2.22;;;;;;;17.86;73.99;100565.88;6210953;23;20008;-71
2022/06/14 01:36:36;;;;;;;3.60;2.03;;;;;;;17.81;74.47;100578.28;6210923;23;20083;-72
2022/06/14 01:39:05;;;;;;;3.92;2.13;;;;;;;17.79;74.25;100575.75;6211315;23;20473;-71
2022/06/14 01:41:52;;;;;;;4.53;2.55;;;;;;;17.77;74.61;100579.66;6210899;23;20022;-72
2022/06/14 01:44:17;;;;;;;3.88;2.30;;;;;;;17.75;75.12;100579.81;6210792;23;20016;-71
2022/06/14 01:47:06;;;;;;;3.88;2.40;;;;;;;17.81;73.93;100573.72;6210746;23;19996;-71
2022/06/14 01:52:47;;;;;;;3.08;2.30;;;;;;;17.70;74.12;100594.91;6210544;23;20034;-71
2022/06/14 01:55:20;;;;;;;3.97;2.10;;;;;;;17.62;74.84;100598.50;6210168;23;20012;-71
2022/06/14 01:57:56;;;;;;;3.23;2.23;;;;;;;17.60;74.74;100599.69;6209993;23;20422;-71
2022/06/14 02:00:35;;;;;;;3.53;2.00;;;;;;;17.51;75.30;100585.28;6209999;23;20004;-71
2022/06/14 02:06:23;;;;;;;3.40;2.42;;;;;;;17.46;76.01;100606.69;6209484;23;20052;-71
2022/06/14 02:09:06;;;;;;;4.85;2.67;;;;;;;17.39;76.13;100596.66;6209182;23;20009;-71
2022/06/14 02:11:34;;;;;;;2.38;2.17;;;;;;;17.49;74.60;100619.03;6208241;23;20014;-71
2022/06/14 02:14:19;;;;;;;4.43;2.55;;;;;;;17.41;75.73;100625.28;6209100;23;20004;-71
2022/06/14 02:17:13;;;;;;;5.30;2.63;;;;;;;17.32;76.73;100620.88;6209679;23;20070;-71
2022/06/14 02:19:50;;;;;;;4.10;2.22;;;;;;;17.29;76.40;100615.78;6208307;23;20017;-71
2022/06/14 02:22:26;;;;;;;4.03;2.22;;;;;;;17.27;77.02;100617.84;6210005;23;20000;-71
2022/06/14 02:25:00;;;;;;;5.40;2.85;;;;;;;17.24;77.04;100614.63;6211146;23;20011;-71
2022/06/14 02:27:33;;;;;;;5.90;2.70;;;;;;;17.22;77.33;100627.50;6210906;23;20418;-71
2022/06/14 02:30:06;;;;;;;5.25;2.72;;;;;;;17.25;77.01;100624.47;6211262;23;20456;-71
2022/06/14 02:32:41;;;;;;;3.60;2.35;;;;;;;17.25;76.75;100625.28;6211099;23;20001;-71
2022/06/14 02:35:14;;;;;;;4.63;2.70;;;;;;;17.21;76.43;100623.94;6211883;23;20035;-71
2022/06/14 02:37:48;;;;;;;4.10;2.72;;;;;;;17.26;76.47;100642.41;6207989;23;20001;-71
2022/06/14 02:40:24;;;;;;;3.67;2.95;;;;;;;17.19;76.44;100638.69;6211487;23;20009;-72
2022/06/14 02:42:49;;;;;;;4.10;2.40;;;;;;;17.24;76.44;100637.16;6211219;23;20020;-71
2022/06/14 02:45:23;;;;;;;7.60;2.97;;;;;;;17.21;76.90;100636.63;6211547;23;20027;-71
2022/06/14 02:48:03;;;;;;;4.72;2.70;;;;;;;17.21;76.39;100637.50;6211680;23;20019;-71
2022/06/14 02:50:43;;;;;;;5.78;3.25;;;;;;;17.19;76.83;100654.97;6211764;23;20016;-72
2022/06/14 02:53:17;;;;;;;2.70;2.30;;;;;;;17.17;77.16;100652.41;6211868;23;20015;-71
2022/06/14 02:55:54;;;;;;;5.25;2.53;;;;;;;17.20;76.98;100662.06;6211439;23;20005;-72
2022/06/14 02:58:29;;;;;;;4.97;2.80;;;;;;;17.16;76.32;100653.41;6212016;23;20774;-71
2022/06/14 03:01:18;;;;;;;5.00;2.97;;;;;;;17.12;76.97;100657.47;6212075;23;20038;-72
2022/06/14 03:03:56;;;;;;;4.75;2.88;;;;;;;17.11;77.04;100666.63;6184703;23;20434;-71
2022/06/14 03:06:22;;;;;;;8.10;2.95;;;;;;;17.09;77.72;100674.06;6211527;23;19996;-71
2022/06/14 03:08:55;;;;;;;4.15;2.53;;;;;;;17.07;77.51;100662.56;6209742;23;20100;-71
2022/06/14 03:11:32;;;;;;;5.75;3.17;;;;;;;17.04;77.65;100684.59;6211640;23;20008;-71
2022/06/14 03:14:06;;;;;;;5.22;3.03;;;;;;;17.00;78.05;100669.69;6211612;23;20005;-71
2022/06/14 03:17:05;;;;;;;7.72;2.97;;;;;;;17.01;77.88;100684.91;6211443;23;20000;-71
2022/06/14 03:20:13;;;;;;;6.60;2.97;;;;;;;17.02;77.31;100686.59;6211340;23;20012;-71
2022/06/14 03:22:38;;;;;;;11.52;3.10;;;;;;;16.99;77.72;100688.81;6168771;23;20333;-71
2022/06/14 03:25:20;;;;;;;3.70;3.08;;;;;;;16.98;77.73;100689.81;6211506;23;20009;-71
2022/06/14 03:27:57;;;;;;;6.13;3.00;;;;;;;16.98;78.34;100693.38;6211464;23;20444;-71
2022/06/14 03:31:27;;;;;;;5.18;3.15;;;;;;;17.01;77.74;100700.31;6211511;23;20448;-71
2022/06/14 03:34:35;;;;;;;6.07;2.92;;;;;;;17.04;78.33;100694.56;6132190;23;20097;-71
2022/06/14 03:37:02;;;;;;;6.20;2.95;;;;;;;17.13;77.22;100704.41;6184581;23;20000;-71
2022/06/14 03:39:36;;;;;;;5.03;3.30;;;;;;;17.08;77.05;100693.22;6211520;23;20035;-71
2022/06/14 03:42:03;;;;;;;9.07;3.45;;;;;;;17.11;77.33;100710.00;6211543;23;20012;-71
2022/06/14 03:44:31;;;;;;;6.80;3.78;;;;;;;17.07;77.25;100703.22;6210991;23;20012;-71
2022/06/14 03:47:21;;;;;;;8.32;3.45;;;;;;;17.08;77.45;100704.91;6211271;23;20008;-71
2022/06/14 03:49:59;;;;;;;5.60;3.15;;;;;;;17.10;76.69;100712.88;6206117;23;20013;-71
2022/06/14 03:52:24;;;;;;;7.25;3.70;;;;;;;17.10;77.27;100718.31;6185166;23;20601;-71
2022/06/14 03:54:57;;;;;;;7.57;3.83;;;;;;;17.06;77.56;100712.34;6211616;23;20015;-71
2022/06/14 03:57:36;;;;;;;4.60;2.95;;;;;;;17.13;76.43;100721.53;6211613;23;20598;-71
2022/06/14 04:00:29;;;;;;;7.28;3.70;;;;;;;17.13;77.08;100726.09;6211515;23;20012;-71
2022/06/14 04:02:57;;;;;;;4.25;2.80;;;;;;;17.14;76.83;100725.94;6211248;23;20008;-72
2022/06/14 04:05:35;;;;;;;4.28;2.28;;;;;;;17.24;76.62;100733.91;6211055;23;20008;-71
2022/06/14 04:08:38;;;;;;;4.32;2.83;;;;;;;17.29;76.82;100729.66;6211197;23;20047;-71
2022/06/14 04:11:30;;;;;;;5.35;3.22;;;;;;;17.42;76.69;100719.19;6211207;23;20035;-66
2022/06/14 04:14:19;;;;;;;5.90;2.83;;;;;;;17.62;76.48;100727.88;6184543;23;20032;-66
2022/06/14 04:16:51;;;;;;;3.47;2.58;;;;;;;17.82;75.42;100723.78;6191784;23;20004;-66
2022/06/14 04:19:31;;;;;;;5.70;3.28;;;;;;;17.94;74.52;100730.56;6210864;23;20008;-66
2022/06/14 04:22:09;;;;;;;16.88;3.42;;;;;;;18.03;73.55;100724.09;6205895;23;20019;-66
2022/06/14 04:24:44;;;;;;;12.23;4.45;;;;;;;18.22;73.02;100726.44;6213985;23;20011;-66
2022/06/14 04:27:22;;;;;;;5.78;3.20;;;;;;;18.40;72.19;100728.94;6211561;23;20035;-66
2022/06/14 04:30:03;;;;;;;5.35;2.97;;;;;;;18.56;71.33;100727.03;6211241;23;20027;-66
2022/06/14 04:32:36;;;;;;;6.32;3.33;;;;;;;18.70;70.69;100728.16;6211128;23;20009;-67
2022/06/14 04:35:09;;;;;;;3.28;2.42;;;;;;;18.87;70.23;100718.91;6211367;23;20028;-67
2022/06/14 04:37:41;;;;;;;7.43;3.05;;;;;;;18.98;68.86;100723.94;6211543;23;20011;-67
2022/06/14 04:40:10;;;;;;;4.68;2.58;;;;;;;19.21;67.91;100725.66;6211509;23;20067;-67
2022/06/14 04:42:40;;;;;;;3.90;2.45;;;;;;;19.35;67.03;100727.63;6211631;23;20581;-67
2022/06/14 04:45:23;;;;;;;6.38;2.70;;;;;;;19.50;65.97;100722.25;6211439;23;20027;-65
2022/06/14 04:47:58;;;;;;;3.90;2.20;;;;;;;19.63;65.41;100728.78;6210967;23;20008;-67
2022/06/14 04:50:32;;;;;;;4.82;2.30;;;;;;;19.78;64.78;100729.69;6211231;23;20022;-67
2022/06/14 04:53:21;;;;;;;6.47;3.13;;;;;;;19.75;64.76;100721.88;6211783;23;20048;-67
2022/06/14 04:56:25;;;;;;;5.63;2.80;;;;;;;19.95;63.91;100728.50;6210319;23;20441;-67
2022/06/14 04:59:16;;;;;;;4.45;2.53;;;;;;;20.14;63.30;100735.31;6210428;23;20452;-67
2022/06/14 05:01:52;;;;;;;5.75;2.72;;;;;;;20.21;62.69;100735.41;6209998;23;20091;-67
2022/06/14 05:04:40;;;;;;;2.83;2.25;;;;;;;20.36;62.72;100736.25;6210382;23;20013;-67
2022/06/14 05:07:13;;;;;;;4.60;2.47;;;;;;;20.44;61.87;100734.28;6210432;23;19997;-67
2022/06/14 05:10:07;;;;;;;7.03;2.60;;;;;;;20.48;61.41;100734.75;6210351;23;20017;-67
2022/06/14 05:12:40;;;;;;;6.10;2.60;;;;;;;20.58;59.97;100729.88;6209320;23;20012;-67
2022/06/14 05:15:13;;;;;;;7.80;3.10;;;;;;;20.68;59.64;100733.16;6210694;23;20000;-67
2022/06/14 05:17:47;;;;;;;6.13;2.20;;;;;;;20.82;59.64;100732.28;6210267;23;20009;-67
2022/06/14 05:20:19;;;;;;;4.15;2.40;;;;;;;20.98;58.97;100732.09;6210443;23;20013;-67
2022/06/14 05:22:53;;;;;;;4.63;2.42;;;;;;;21.16;58.96;100743.44;6210074;23;20062;-66
2022/06/14 05:25:20;;;;;;;3.88;2.15;;;;;;;21.29;57.77;100752.63;6210306;23;20472;-67
2022/06/14 05:28:05;;;;;;;4.78;2.10;;;;;;;21.47;57.07;100754.94;6210290;23;20073;-66
2022/06/14 05:30:37;;;;;;;5.10;2.15;;;;;;;21.59;56.76;100772.47;6210475;23;20499;-66
2022/06/14 05:33:11;;;;;;;6.22;2.20;;;;;;;21.69;56.24;100753.88;6210549;23;20059;-66
2022/06/14 05:35:42;;;;;;;7.75;2.30;;;;;;;21.82;55.78;100764.94;6183924;23;20001;-66
2022/06/14 05:38:19;;;;;;;3.17;2.08;;;;;;;21.91;55.03;100766.50;6210641;23;20000;-66
2022/06/14 05:41:03;;;;;;;5.97;2.30;;;;;;;22.01;55.40;100777.94;6210236;23;20005;-67
2022/06/14 05:43:31;;;;;;;9.45;2.90;;;;;;;22.10;54.92;100774.88;6210143;23;20236;-67
2022/06/14 05:46:25;;;;;;;5.43;2.33;;;;;;;22.19;54.62;100784.59;6203230;23;20045;-66
2022/06/14 05:49:00;;;;;;;7.03;2.53;;;;;;;22.29;53.89;100784.28;6179673;23;20075;-65
2022/06/14 05:51:32;;;;;;;9.02;2.53;;;;;;;22.27;53.60;100773.53;6180085;23;20266;-65
2022/06/14 05:54:01;;;;;;;9.02;2.10;;;;;;;22.42;53.54;100789.84;6180206;23;20011;-66
2022/06/14 05:56:40;;;;;;;3.72;2.17;;;;;;;22.46;53.14;100780.19;6180067;23;20449;-66
2022/06/14 05:59:13;;;;;;;7.07;2.08;;;;;;;22.62;53.13;100782.63;6180701;23;20468;-71
2022/06/14 06:01:52;;;;;;;3.90;1.77;;;;;;;22.67;52.98;100776.56;6182030;23;20492;-71
2022/06/14 06:04:23;;;;;;;4.05;1.80;;;;;;;22.79;52.10;100784.00;6182346;23;20012;-71
2022/06/14 06:06:55;;;;;;;8.40;2.00;;;;;;;22.85;51.76;100788.66;6180176;23;20460;-71
2022/06/14 06:09:32;;;;;;;6.65;1.80;;;;;;;22.97;52.25;100798.00;6182070;23;20445;-71
2022/06/14 06:12:26;;;;;;;6.70;2.20;;;;;;;22.91;51.34;100796.06;6181900;23;20386;-71
2022/06/14 06:15:00;;;;;;;5.70;1.83;;;;;;;22.92;51.10;100785.97;6181748;23;20005;-71
2022/06/14 06:17:33;;;;;;;;;;;;;;;23.10;51.03;100799.94;6182619;23;20377;-70
2022/06/14 06:20:17;;;;;;;3.85;1.98;;;;;;;23.19;50.26;100802.31;6181874;23;19912;-71
2022/06/14 06:22:54;;;;;;;5.15;2.00;;;;;;;23.30;49.74;100804.47;6181855;23;20009;-71
2022/06/14 06:25:29;;;;;;;4.63;1.85;;;;;;;23.38;49.18;100812.50;6181866;23;20389;-71
2022/06/14 06:28:04;;;;;;;5.88;2.22;;;;;;;23.45;48.80;100807.91;6180973;23;20005;-71
2022/06/14 06:30:38;;;;;;;5.88;2.13;;;;;;;23.49;48.87;100805.59;6181665;23;20283;-71
2022/06/14 06:33:05;;;;;;;2.67;1.60;;;;;;;23.59;48.47;100798.66;6181846;23;20334;-72
2022/06/14 06:35:38;;;;;;;4.88;1.80;;;;;;;23.68;48.30;100802.91;6181818;23;20513;-71
2022/06/14 06:38:17;;;;;;;4.03;1.70;;;;;;;23.81;47.90;100810.31;6182117;23;20085;-71
2022/06/14 06:43:40;;;;;;;5.47;2.15;;;;;;;23.83;47.70;100803.56;6181724;23;20063;-71
2022/06/14 06:46:12;;;;;;;5.00;1.95;;;;;;;23.84;47.81;100794.31;6211349;23;20012;-71
2022/06/14 06:48:43;;;;;;;4.45;2.17;;;;;;;23.87;47.43;100801.25;6185107;23;20027;-70
2022/06/14 06:51:12;;;;;;;4.38;2.67;;;;;;;23.93;48.11;100805.91;6211745;23;20445;-70
2022/06/14 06:53:50;;;;;;;8.93;2.47;;;;;;;23.95;48.73;100809.28;6211610;23;20000;-70
2022/06/14 06:56:22;;;;;;;3.83;2.15;;;;;;;24.00;48.66;100815.84;6211757;23;19996;-70
2022/06/14 06:59:04;;;;;;;4.03;2.40;;;;;;;24.02;48.87;100816.47;6211938;23;20000;-71
2022/06/14 07:01:37;;;;;;;3.70;2.70;;;;;;;24.03;48.34;100818.19;6211834;23;20401;-72
2022/06/14 07:05:03;;;;;;;3.25;1.95;;;;;;;24.09;47.90;100822.78;6211794;23;20005;-71
2022/06/14 07:07:52;;;;;;;4.03;2.30;;;;;;;24.15;47.01;100813.75;6213354;23;20009;-71
2022/06/14 07:10:34;;;;;;;2.72;1.63;;;;;;;24.13;47.73;100817.75;6212200;23;20035;-71
2022/06/14 07:13:08;;;;;;;4.70;2.28;;;;;;;24.05;47.37;100817.94;6212305;23;20004;-72
2022/06/14 07:15:36;;;;;;;2.08;1.73;;;;;;;24.08;47.22;100821.13;6212058;23;20438;-71
2022/06/14 07:18:19;;;;;;;5.30;2.05;;;;;;;24.21;47.42;100823.00;6212253;23;20071;-71
2022/06/14 07:20:51;;;;;;;5.95;1.50;;;;;;;24.37;46.97;100828.94;6211998;23;20761;-71
2022/06/14 07:23:22;;;;;;;4.25;2.00;;;;;;;24.39;46.61;100832.31;6212355;23;20028;-71
2022/06/14 07:25:57;;;;;;;5.97;2.00;;;;;;;24.37;46.10;100817.97;6211644;23;20004;-72
2022/06/14 07:28:33;;;;;;;5.60;1.92;;;;;;;24.50;46.62;100819.84;6212181;23;20063;-72
2022/06/14 07:31:10;;;;;;;5.57;1.50;;;;;;;24.58;45.62;100813.28;6211967;23;20021;-71
2022/06/14 07:33:37;;;;;;;5.13;1.92;;;;;;;24.77;44.55;100828.91;6211946;23;20007;-71
2022/06/14 07:36:11;;;;;;;4.13;1.73;;;;;;;24.84;44.62;100819.63;6212027;23;20088;-71
2022/06/14 07:39:01;;;;;;;4.65;1.70;;;;;;;24.92;44.48;100826.78;6211900;23;20028;-71
2022/06/14 07:41:54;;;;;;;3.03;1.80;;;;;;;24.88;44.22;100820.00;6211984;23;20008;-72
2022/06/14 07:44:43;;;;;;;2.60;1.50;;;;;;;24.95;44.59;100809.88;6211997;23;20422;-71
2022/06/14 07:47:20;;;;;;;6.80;1.83;;;;;;;25.12;44.71;100811.91;6212216;23;20477;-72
2022/06/14 07:49:48;;;;;;;4.90;1.73;;;;;;;25.26;44.91;100815.47;6211781;23;20001;-72
2022/06/14 07:52:24;;;;;;;6.05;1.98;;;;;;;25.30;44.73;100812.06;6212240;23;20013;-72
2022/06/14 07:54:56;;;;;;;3.45;1.70;;;;;;;25.43;45.27;100816.69;6185344;23;20012;-71
2022/06/14 07:57:29;;;;;;;4.75;1.70;;;;;;;25.48;44.31;100811.38;6185481;23;19993;-71
2022/06/14 08:01:07;;;;;;;5.43;2.42;;;;;;;25.59;43.56;100807.94;6211104;23;20106;-72
2022/06/14 08:02:53;;;;;;;3.33;1.75;;;;;;;25.74;42.76;100820.31;6210438;23;20024;-72
2022/06/14 08:05:24;;;;;;;3.20;1.70;;;;;;;25.87;42.90;100817.50;6211793;23;20011;-72
2022/06/14 08:07:53;;;;;;;2.78;1.40;;;;;;;25.88;42.72;100813.66;6211625;23;20011;-71
2022/06/14 08:10:24;;;;;;;3.17;1.70;;;;;;;25.82;42.77;100809.06;6185093;23;20004;-71
2022/06/14 08:12:58;;;;;;;2.35;1.35;;;;;;;25.80;42.05;100802.09;6184887;23;20008;-71
2022/06/14 08:15:39;;;;;;;2.95;1.40;;;;;;;25.86;42.01;100803.97;6211749;23;20007;-71
2022/06/14 08:18:23;;;;;;;3.20;1.70;;;;;;;25.97;41.52;100804.13;6182291;23;20059;-72
2022/06/14 08:20:59;;;;;;;2.70;1.70;;;;;;;26.05;41.43;100803.03;6209934;23;20021;-72
2022/06/14 08:23:29;;;;;;;3.25;1.48;;;;;;;26.07;41.19;100796.22;6210109;23;20005;-71
2022/06/14 08:26:09;;;;;;;7.05;2.00;;;;;;;26.13;40.32;100805.47;6210791;23;20096;-72
2022/06/14 08:28:46;;;;;;;4.28;1.65;;;;;;;26.13;40.92;100811.84;6211405;23;20008;-72
2022/06/14 08:31:34;;;;;;;3.92;1.35;;;;;;;26.13;40.93;100798.09;6211703;23;20382;-71
2022/06/14 08:33:59;;;;;;;5.97;1.90;;;;;;;26.27;40.65;100807.03;6211440;23;20013;-71
2022/06/14 08:36:55;;;;;;;5.15;2.08;;;;;;;26.28;39.48;100804.06;6209844;23;20007;-71
2022/06/14 08:39:42;;;;;;;2.83;1.52;;;;;;;26.36;39.51;100800.19;6206591;23;20040;-72
2022/06/14 08:42:30;;;;;;;3.40;1.50;;;;;;;26.41;39.73;100801.19;6211535;23;20005;-71
2022/06/14 08:45:06;;;;;;;4.35;1.73;;;;;;;26.43;39.32;100796.31;6210836;23;20020;-71
2022/06/14 08:47:34;;;;;;;4.90;2.00;;;;;;;26.48;38.39;100801.97;6211126;23;20500;-72
2022/06/14 08:50:21;;;;;;;5.28;1.70;;;;;;;26.54;38.85;100794.75;6184526;23;20008;-72
2022/06/14 08:53:08;;;;;;;4.13;1.30;;;;;;;26.62;38.77;100790.88;6211095;23;20015;-71
2022/06/14 08:55:34;;;;;;;2.38;1.45;;;;;;;26.62;38.48;100777.13;6211328;23;20012;-72
2022/06/14 08:58:05;;;;;;;4.32;2.30;;;;;;;26.73;37.66;100788.25;6211222;23;20008;-71
2022/06/14 09:00:37;;;;;;;4.28;1.80;;;;;;;26.82;37.04;100791.53;6211146;23;20020;-72
2022/06/14 09:03:41;;;;;;;7.18;2.45;;;;;;;26.81;37.00;100790.69;6209696;23;20019;-71
2022/06/14 09:06:20;;;;;;;3.97;1.90;;;;;;;26.70;35.74;100788.69;6206686;23;20005;-72
2022/06/14 09:09:00;;;;;;;5.50;1.80;;;;;;;26.69;36.40;100791.69;6210875;23;20307;-72
2022/06/14 09:12:03;;;;;;;5.00;1.75;;;;;;;26.48;35.98;100765.38;6184804;23;20001;-72
2022/06/14 09:14:43;;;;;;;4.18;1.67;;;;;;;26.65;36.10;100782.16;6211193;23;20001;-72
2022/06/14 09:17:11;;;;;;;2.67;1.60;;;;;;;26.68;36.16;100779.81;6210949;23;20402;-71
2022/06/14 09:19:39;;;;;;;7.30;1.98;;;;;;;26.70;36.15;100780.44;6211091;23;20035;-72
2022/06/14 09:22:09;;;;;;;9.40;2.08;;;;;;;26.65;35.11;100791.28;6211075;23;20023;-72
2022/06/14 09:24:47;;;;;;;3.15;1.73;;;;;;;26.53;34.96;100788.41;6179017;23;20087;-71
2022/06/14 09:27:43;;;;;;;7.95;1.92;;;;;;;26.31;34.89;100786.28;6210955;23;20448;-72
2022/06/14 09:30:33;;;;;;;4.13;1.63;;;;;;;26.20;35.12;100789.75;6211051;23;20004;-71
2022/06/14 09:33:35;;;;;;;2.17;1.98;;;;;;;26.10;35.39;100789.44;6210533;23;20396;-71
2022/06/14 09:36:28;;;;;;;2.28;1.60;;;;;;;26.12;34.93;100787.31;6209398;23;20619;-72
2022/06/14 09:39:09;;;;;;;2.88;1.73;;;;;;;26.09;33.40;100793.25;6211071;23;20008;-71
2022/06/14 09:41:59;;;;;;;4.40;1.92;;;;;;;26.05;34.70;100794.78;6210746;23;20004;-72
2022/06/14 09:44:59;;;;;;;10.10;2.15;;;;;;;25.83;33.47;100776.94;6210856;23;20044;-71
2022/06/14 09:48:00;;;;;;;4.05;1.75;;;;;;;25.81;33.72;100785.38;6209956;23;20044;-71
2022/06/14 09:50:40;;;;;;;7.00;2.00;;;;;;;25.87;33.51;100783.66;6210411;23;20008;-71
2022/06/14 09:53:33;;;;;;;5.82;2.05;;;;;;;25.84;33.02;100784.94;6211127;23;20018;-71
2022/06/14 09:56:16;;;;;;;3.20;1.60;;;;;;;25.84;32.76;100787.69;6211061;23;20027;-71
2022/06/14 09:59:09;;;;;;;4.03;1.33;;;;;;;25.79;32.50;100787.50;6210365;23;20005;-71
2022/06/14 10:01:40;;;;;;;2.97;1.75;;;;;;;25.76;33.12;100787.13;6210873;23;20019;-71
2022/06/14 10:04:11;;;;;;;3.83;1.77;;;;;;;25.87;34.39;100781.75;6210867;23;20001;-71
2022/06/14 10:07:04;;;;;;;5.55;1.80;;;;;;;25.84;34.89;100768.44;6210617;23;20094;-71
2022/06/14 10:10:02;;;;;;;6.70;2.33;;;;;;;25.94;34.83;100766.06;6210982;23;20013;-72
2022/06/14 10:12:42;;;;;;;2.85;1.67;;;;;;;26.05;34.69;100767.28;6211012;23;20004;-71
2022/06/14 10:15:18;;;;;;;5.57;2.10;;;;;;;26.19;33.08;100760.59;6210781;23;20011;-72
2022/06/14 10:18:03;;;;;;;4.40;2.00;;;;;;;26.23;32.39;100762.66;6210629;23;20020;-72
2022/06/14 10:20:37;;;;;;;;;;;;;;;26.20;32.44;100768.63;6211471;23;20013;-72
2022/06/14 10:23:31;;;;;;;5.57;1.92;;;;;;;26.07;32.82;100754.13;6210848;23;19935;-72
2022/06/14 10:29:05;;;;;;;6.38;2.22;;;;;;;25.99;31.86;100759.91;6210624;23;20020;-72
2022/06/14 10:31:57;;;;;;;3.55;1.77;;;;;;;25.99;31.54;100759.91;6210962;23;20001;-72
2022/06/14 10:34:42;;;;;;;4.40;1.60;;;;;;;26.05;32.38;100765.34;6210811;23;20012;-72
2022/06/14 10:37:14;;;;;;;5.30;2.00;;;;;;;26.17;32.85;100768.22;6210693;23;20009;-73
2022/06/14 10:40:21;;;;;;;5.97;1.92;;;;;;;26.17;32.65;100760.81;6210610;23;20008;-72
2022/06/14 10:43:04;;;;;;;4.10;1.83;;;;;;;26.21;32.47;100753.78;6167735;23;20008;-72
2022/06/14 10:45:37;;;;;;;6.03;2.15;;;;;;;26.21;32.52;100751.03;6211504;23;20060;-72
2022/06/14 10:48:21;;;;;;;5.13;1.60;;;;;;;26.14;32.38;100741.16;6212666;23;20066;-72
2022/06/14 10:51:01;;;;;;;8.20;2.40;;;;;;;26.22;31.98;100749.94;6212495;23;20664;-72
2022/06/14 10:53:35;;;;;;;3.85;1.65;;;;;;;26.31;32.08;100753.28;6212591;23;20445;-72
2022/06/14 10:56:19;;;;;;;4.68;2.05;;;;;;;26.31;32.04;100754.09;6212507;23;20307;-73
2022/06/14 10:59:08;;;;;;;7.13;2.00;;;;;;;26.29;31.86;100752.66;6212339;23;20011;-72
2022/06/14 11:01:54;;;;;;;6.40;2.28;;;;;;;26.24;32.59;100753.34;6212356;23;20023;-72
2022/06/14 11:04:25;;;;;;;5.40;1.90;;;;;;;26.20;32.39;100756.75;6212667;23;20015;-72
2022/06/14 11:07:07;;;;;;;7.07;2.33;;;;;;;26.09;32.48;100754.75;6212017;23;20016;-72
2022/06/14 11:10:04;;;;;;;5.35;2.58;;;;;;;26.03;32.51;100747.41;6185539;23;20019;-72
2022/06/14 11:12:32;;;;;;;3.85;1.50;;;;;;;25.96;32.32;100746.59;6212336;23;20087;-72
2022/06/14 11:15:15;;;;;;;6.45;1.88;;;;;;;25.84;32.54;100751.97;6211835;23;20015;-72
2022/06/14 11:17:50;;;;;;;4.43;2.00;;;;;;;25.75;32.44;100744.19;6212017;23;20429;-71
2022/06/14 11:20:53;;;;;;;5.22;1.95;;;;;;;25.68;32.61;100744.25;6212043;23;20079;-71
2022/06/14 11:23:24;;;;;;;3.90;1.95;;;;;;;25.70;32.10;100739.34;6185722;23;20508;-72
2022/06/14 11:26:09;;;;;;;5.75;2.22;;;;;;;25.71;31.55;100731.97;6185337;23;20116;-72
2022/06/14 11:28:43;;;;;;;5.35;1.80;;;;;;;25.81;31.38;100743.31;6212160;23;20446;-71
2022/06/14 11:31:24;;;;;;;6.38;1.75;;;;;;;25.88;31.56;100741.34;6212103;23;20040;-71
2022/06/14 11:33:55;;;;;;;4.25;2.10;;;;;;;25.97;31.42;100735.41;6212077;23;20015;-71
2022/06/14 11:36:34;;;;;;;4.68;1.88;;;;;;;25.99;31.17;100733.25;6210702;23;20062;-72
2022/06/14 11:39:14;;;;;;;5.95;1.83;;;;;;;26.08;30.81;100731.06;6185254;23;20015;-71
2022/06/14 11:41:45;;;;;;;4.32;1.90;;;;;;;26.14;31.26;100742.00;6211790;23;20012;-71
2022/06/14 11:44:36;;;;;;;7.00;1.80;;;;;;;26.24;30.94;100741.47;6212212;23;20005;-71
2022/06/14 11:47:31;;;;;;;4.82;2.00;;;;;;;26.25;30.09;100732.19;6211941;23;20090;-71
2022/06/14 11:50:06;;;;;;;;;;;;;;;26.29;30.20;100726.00;6212824;23;20130;-71
2022/06/14 11:53:18;;;;;;;4.30;1.67;;;;;;;26.40;30.46;100732.66;6185620;23;20249;-71
2022/06/14 11:56:31;;;;;;;3.05;1.80;;;;;;;26.40;29.88;100729.91;6211711;23;20080;-71
2022/06/14 11:59:13;;;;;;;4.47;1.65;;;;;;;26.41;29.79;100731.59;6165012;23;20010;-72
2022/06/14 12:01:47;;;;;;;7.40;2.20;;;;;;;26.49;29.76;100731.28;6210109;23;20067;-71
2022/06/14 12:04:27;;;;;;;7.13;2.03;;;;;;;26.47;29.74;100739.78;6211885;23;20051;-71
2022/06/14 12:07:07;;;;;;;5.85;1.77;;;;;;;26.40;29.58;100732.66;6211505;23;20048;-71
2022/06/14 12:10:02;;;;;;;4.32;1.55;;;;;;;26.38;29.16;100732.88;6211780;23;20001;-71
2022/06/14 12:12:34;;;;;;;4.85;1.85;;;;;;;26.40;29.10;100729.91;6211865;23;20020;-71
2022/06/14 12:15:22;;;;;;;5.50;1.92;;;;;;;26.40;29.46;100730.75;6211559;23;20386;-71
2022/06/14 12:17:51;;;;;;;6.20;2.20;;;;;;;26.43;29.40;100726.69;6195401;23;20059;-71
2022/06/14 12:20:19;;;;;;;3.75;1.65;;;;;;;26.48;28.92;100716.69;6211613;23;19997;-71
2022/06/14 12:22:53;;;;;;;2.78;1.40;;;;;;;26.54;30.17;100706.69;6211362;23;20444;-71
2022/06/14 12:28:11;;;;;;;9.52;2.10;;;;;;;26.60;30.07;100729.69;6211733;23;20022;-71
2022/06/14 12:30:41;;;;;;;6.00;1.70;;;;;;;26.57;29.75;100719.16;6211569;23;20337;-71
2022/06/14 12:33:18;;;;;;;5.38;1.83;;;;;;;26.54;29.43;100717.69;6211243;23;20000;-71